createdAt,value
2024-01-01T00:04:27.602Z,1.05
2024-01-01T00:09:31.328Z,1.10
2024-01-01T00:14:35.144Z,1.42
2024-01-01T00:19:39.945Z,1.88
2024-01-01T00:24:43.408Z,2.20
2024-01-01T00:29:46.795Z,2.30
2024-01-01T00:34:51.629Z,3.15
2024-01-01T00:39:55.462Z,3.28
2024-01-01T00:44:58.870Z,3.92
2024-01-01T00:50:05.237Z,3.05
2024-01-01T00:55:09.488Z,3.60
2024-01-01T01:00:13.757Z,2.92
2024-01-01T01:05:20.702Z,3.10
2024-01-01T01:10:24.380Z,3.13
2024-01-01T01:15:29.670Z,3.00
2024-01-01T01:20:34.466Z,2.55
2024-01-01T01:25:37.964Z,2.50
2024-01-01T01:30:41.474Z,2.50
2024-01-01T01:35:46.333Z,2.55
2024-01-01T01:40:49.721Z,2.55
2024-01-01T01:45:54.548Z,2.40
2024-01-01T01:50:59.707Z,2.60
2024-01-01T01:56:08.392Z,2.55
2024-01-01T02:01:12.896Z,2.65
2024-01-01T02:06:17.778Z,2.13
2024-01-01T02:11:21.400Z,2.10
2024-01-01T02:16:24.954Z,2.20
2024-01-01T02:21:29.801Z,2.30
2024-01-01T02:26:34.528Z,2.00
2024-01-01T02:31:37.997Z,2.17
2024-01-01T02:36:42.388Z,1.80
2024-01-01T02:41:47.232Z,1.83
2024-01-01T02:46:50.836Z,2.00
2024-01-01T02:51:54.230Z,1.90
2024-01-01T02:56:58.969Z,1.95
2024-01-01T03:02:02.654Z,1.70
2024-01-01T03:07:06.945Z,1.60
2024-01-01T03:12:12.106Z,1.77
2024-01-01T03:17:15.645Z,1.52
2024-01-01T03:22:19.057Z,1.80
2024-01-01T03:27:24.085Z,1.50
2024-01-01T03:32:27.566Z,1.83
2024-01-01T03:37:31.070Z,1.60
2024-01-01T03:42:35.917Z,1.60
2024-01-01T03:47:39.563Z,1.60
2024-01-01T03:52:43.183Z,1.50
2024-01-01T03:57:48.101Z,1.50
2024-01-01T04:02:51.816Z,1.42
2024-01-01T04:07:55.316Z,1.65
2024-01-01T04:13:00.128Z,1.40
2024-01-01T04:18:03.778Z,1.40
2024-01-01T04:23:07.469Z,1.38
2024-01-01T04:28:12.349Z,1.27
2024-01-01T04:33:16.063Z,1.23
2024-01-01T04:38:19.588Z,1.20
2024-01-01T04:43:25.389Z,1.40
2024-01-01T04:48:29.035Z,1.30
2024-01-01T04:53:32.825Z,1.50
2024-01-01T04:58:37.598Z,1.70
2024-01-01T05:03:41.017Z,1.20
2024-01-01T05:08:44.503Z,1.40
2024-01-01T05:13:49.268Z,1.58
2024-01-01T05:18:52.768Z,1.67
2024-01-01T05:23:56.267Z,1.10
2024-01-01T05:29:01.056Z,1.15
2024-01-01T05:34:04.508Z,1.30
2024-01-01T05:39:07.890Z,1.27
2024-01-01T05:44:12.740Z,1.20
2024-01-01T05:49:16.148Z,1.30
2024-01-01T05:54:19.642Z,1.48
2024-01-01T05:59:24.365Z,1.30
2024-01-01T06:04:27.945Z,1.20
2024-01-01T06:09:31.441Z,1.20
2024-01-01T06:14:36.273Z,1.10
2024-01-01T06:19:39.725Z,1.10
2024-01-01T06:24:43.137Z,1.40
2024-01-01T06:29:48.319Z,1.30
2024-01-01T06:34:51.755Z,1.20
2024-01-01T06:39:55.401Z,1.23
2024-01-01T06:45:04.236Z,1.10
2024-01-01T06:50:08.765Z,1.13
2024-01-01T06:55:12.256Z,1.25
2024-01-01T07:00:19.735Z,1.02
2024-01-01T07:05:25.506Z,1.17
2024-01-01T07:10:29.169Z,1.13
2024-01-01T07:15:33.977Z,1.10
2024-01-01T07:20:38.794Z,1.23
2024-01-01T07:25:42.589Z,1.27
2024-01-01T07:30:47.649Z,1.20
2024-01-01T07:35:51.135Z,1.27
2024-01-01T07:40:54.712Z,1.00
2024-01-01T07:45:59.504Z,0.95
2024-01-01T07:51:02.938Z,1.20
2024-01-01T07:56:07.993Z,1.00
2024-01-01T08:01:12.813Z,1.05
2024-01-01T08:06:18.983Z,1.00
2024-01-01T08:11:22.508Z,0.90
2024-01-01T08:16:27.371Z,1.00
2024-01-01T08:21:30.840Z,0.98
2024-01-01T08:26:34.217Z,1.00
2024-01-01T08:31:39.020Z,1.00
2024-01-01T08:36:42.432Z,1.17
2024-01-01T08:41:47.089Z,1.00
2024-01-01T08:46:51.951Z,1.02
2024-01-01T08:51:55.365Z,1.20
2024-01-01T08:56:58.845Z,1.00
2024-01-01T09:02:03.633Z,1.20
2024-01-01T09:07:07.076Z,1.00
2024-01-01T09:12:11.182Z,1.00
2024-01-01T09:17:16.055Z,1.10
2024-01-01T09:22:19.590Z,0.90
2024-01-01T09:27:23.198Z,0.90
2024-01-01T09:32:29.417Z,1.10
2024-01-01T09:37:33.548Z,0.82
2024-01-01T09:42:37.016Z,0.85
2024-01-01T09:47:42.312Z,0.90
2024-01-01T09:52:46.026Z,1.02
2024-01-01T09:57:49.433Z,0.90
2024-01-01T10:03:11.980Z,0.80
2024-01-01T10:08:17.700Z,1.00
2024-01-01T10:13:21.163Z,1.08
2024-01-01T10:18:26.599Z,1.20
2024-01-01T10:23:31.221Z,1.00
2024-01-01T10:28:35.731Z,0.88
2024-01-01T10:33:42.908Z,1.10
2024-01-01T10:38:49.648Z,1.13
2024-01-01T10:43:54.025Z,0.93
2024-01-01T10:49:00.212Z,1.00
2024-01-01T10:54:56.918Z,1.05
2024-01-01T11:00:25.228Z,1.10
2024-01-01T11:05:36.252Z,1.40
2024-01-01T11:10:45.653Z,1.70
2024-01-01T11:15:49.872Z,2.13
2024-01-01T11:20:56.921Z,2.00
2024-01-01T11:26:00.404Z,1.87
2024-01-01T11:31:04.111Z,1.85
2024-01-01T11:36:11.495Z,2.00
2024-01-01T11:41:24.392Z,1.55
2024-01-01T11:46:29.053Z,1.50
2024-01-01T11:51:48.778Z,1.83
2024-01-01T11:56:57.811Z,1.90
2024-01-01T12:02:01.681Z,1.52
2024-01-01T12:07:06.639Z,1.50
2024-01-01T12:12:14.014Z,1.92
2024-01-01T12:17:17.511Z,1.40
2024-01-01T12:22:26.020Z,1.48
2024-01-01T12:27:31.303Z,1.60
2024-01-01T12:32:35.491Z,1.40
2024-01-01T12:37:40.336Z,1.80
2024-01-01T12:42:43.799Z,1.25
2024-01-01T12:47:47.260Z,1.60
2024-01-01T12:52:52.069Z,1.50
2024-01-01T12:57:55.464Z,1.60
2024-01-01T13:02:58.899Z,1.35
2024-01-01T13:08:04.496Z,1.50
2024-01-01T13:13:08.217Z,1.55
2024-01-01T13:18:11.623Z,1.77
2024-01-01T13:23:17.770Z,1.50
2024-01-01T13:28:22.681Z,1.60
2024-01-01T13:33:26.468Z,1.52
2024-01-01T13:38:31.430Z,1.60
2024-01-01T13:43:34.918Z,1.42
2024-01-01T13:48:38.467Z,1.50
2024-01-01T13:53:43.247Z,1.48
2024-01-01T13:58:46.939Z,1.38
2024-01-01T14:03:51.353Z,1.70
2024-01-01T14:08:56.206Z,2.20
2024-01-01T14:13:59.713Z,1.90
2024-01-01T14:19:03.377Z,2.00
2024-01-01T14:24:10.288Z,2.17
2024-01-01T14:29:13.784Z,2.10
2024-01-01T14:34:17.305Z,1.95
2024-01-01T14:39:22.270Z,1.90
2024-01-01T14:44:27.058Z,1.80
2024-01-01T14:49:30.715Z,1.88
2024-01-01T14:54:35.589Z,1.60
2024-01-01T14:59:38.993Z,1.60
2024-01-01T15:04:45.017Z,1.70
2024-01-01T15:09:49.943Z,1.40
2024-01-01T15:14:54.268Z,1.70
2024-01-01T15:19:57.822Z,1.40
2024-01-01T15:25:02.611Z,1.70
2024-01-01T15:30:08.893Z,1.63
2024-01-01T15:35:12.855Z,1.63
2024-01-01T15:40:20.220Z,1.75
2024-01-01T15:45:24.164Z,1.63
2024-01-01T15:50:27.672Z,1.52
2024-01-01T15:55:33.168Z,1.45
2024-01-01T16:00:37.943Z,1.70
2024-01-01T16:05:41.452Z,1.70
2024-01-01T16:10:46.540Z,1.40
2024-01-01T16:15:55.766Z,1.45
2024-01-01T16:20:59.244Z,1.40
2024-01-01T16:26:04.312Z,1.80
2024-01-01T16:31:07.724Z,1.50
2024-01-01T16:36:17.587Z,1.60
2024-01-01T16:41:25.574Z,1.65
2024-01-01T16:46:29.043Z,2.47
2024-01-01T16:51:32.459Z,2.83
2024-01-01T16:56:37.258Z,2.63
2024-01-01T17:01:40.731Z,2.70
2024-01-01T17:06:47.081Z,3.15
2024-01-01T17:11:51.924Z,2.92
2024-01-01T17:16:55.418Z,2.50
2024-01-01T17:21:58.820Z,2.50
2024-01-01T17:27:03.701Z,2.40
2024-01-01T17:32:07.674Z,3.15
2024-01-01T17:37:11.202Z,2.97
2024-01-01T17:42:18.326Z,3.30
2024-01-01T17:47:23.488Z,2.45
2024-01-01T17:52:27.012Z,2.60
2024-01-01T17:57:31.841Z,2.97
2024-01-01T18:02:35.840Z,2.80
2024-01-01T18:07:41.921Z,2.88
2024-01-01T18:12:46.880Z,3.08
2024-01-01T18:17:51.392Z,2.22
2024-01-01T18:22:56.272Z,2.70
2024-01-01T18:28:01.161Z,3.05
2024-01-01T18:33:05.793Z,2.08
2024-01-01T18:38:09.423Z,2.92
2024-01-01T18:43:14.221Z,2.60
2024-01-01T18:48:18.013Z,2.53
2024-01-01T18:53:21.735Z,2.08
2024-01-01T18:58:26.589Z,2.00
2024-01-01T19:03:30.723Z,2.20
2024-01-01T19:08:34.131Z,2.00
2024-01-01T19:13:39.534Z,1.83
2024-01-01T19:18:44.793Z,2.05
2024-01-01T19:23:49.015Z,2.00
2024-01-01T19:28:53.876Z,2.55
2024-01-01T19:33:57.325Z,4.07
2024-01-01T19:39:00.748Z,5.60
2024-01-01T19:44:05.948Z,8.68
2024-01-01T19:49:10.668Z,10.70
2024-01-01T19:54:14.253Z,13.63
2024-01-01T19:59:19.066Z,16.23
2024-01-01T20:04:22.909Z,19.35
2024-01-01T20:09:26.449Z,20.50
2024-01-01T20:14:31.401Z,20.85
2024-01-01T20:19:34.936Z,21.38
2024-01-01T20:24:38.435Z,21.27
2024-01-01T20:29:43.231Z,28.25
2024-01-01T20:34:46.645Z,36.17
2024-01-01T20:39:50.068Z,34.63
2024-01-01T20:44:54.872Z,39.33
2024-01-01T20:49:58.339Z,39.28
2024-01-01T20:55:01.832Z,39.53
2024-01-01T21:00:10.274Z,38.58
2024-01-01T21:05:14.078Z,40.38
2024-01-01T21:10:19.664Z,39.40
2024-01-01T21:15:24.666Z,39.13
2024-01-01T21:20:28.141Z,38.78
2024-01-01T21:25:31.612Z,38.22
2024-01-01T21:30:36.425Z,35.47
2024-01-01T21:35:39.870Z,36.47
2024-01-01T21:40:43.343Z,36.40
2024-01-01T21:45:48.112Z,36.40
2024-01-01T21:50:51.555Z,36.17
2024-01-01T21:55:54.979Z,38.57
2024-01-01T22:00:59.764Z,37.47
2024-01-01T22:06:03.434Z,36.05
2024-01-01T22:11:07.067Z,35.75
2024-01-01T22:16:11.930Z,32.63
2024-01-01T22:21:18.997Z,32.90
2024-01-01T22:26:22.495Z,31.23
2024-01-01T22:31:27.295Z,32.13
2024-01-01T22:36:30.723Z,29.30
2024-01-01T22:41:34.181Z,29.02
2024-01-01T22:46:38.979Z,28.40
2024-01-01T22:51:42.339Z,26.15
2024-01-01T22:56:46.568Z,26.30
2024-01-01T23:01:53.004Z,25.70
2024-01-01T23:06:56.424Z,24.15
2024-01-01T23:11:59.872Z,23.20
2024-01-01T23:17:05.188Z,22.27
2024-01-01T23:22:08.632Z,23.52
2024-01-01T23:27:12.001Z,20.92
2024-01-01T23:32:16.810Z,22.35
2024-01-01T23:37:22.028Z,20.67
2024-01-01T23:42:25.571Z,20.50
2024-01-01T23:47:30.436Z,20.00
2024-01-01T23:52:34.005Z,19.50
2024-01-01T23:57:37.402Z,18.77
